createdAt,value
2019-01-20T00:01:13.273Z,93.30
2019-01-20T00:03:57.473Z,93.30
2019-01-20T00:06:42.420Z,93.50
2019-01-20T00:09:25.799Z,93.50
2019-01-20T00:12:08.949Z,93.60
2019-01-20T00:14:52.145Z,93.50
2019-01-20T00:17:37.708Z,93.50
2019-01-20T00:20:22.758Z,93.60
2019-01-20T00:23:07.789Z,93.60
2019-01-20T00:25:51.172Z,93.50
2019-01-20T00:28:34.056Z,93.50
2019-01-20T00:31:17.255Z,93.60
2019-01-20T00:34:00.276Z,93.60
2019-01-20T00:36:42.937Z,93.60
2019-01-20T00:39:28.204Z,93.70
2019-01-20T00:42:12.644Z,93.90
2019-01-20T00:45:02.924Z,93.60
2019-01-20T00:47:44.977Z,93.70
2019-01-20T00:50:31.657Z,93.70
2019-01-20T00:53:15.097Z,93.80
2019-01-20T00:56:00.497Z,93.80
2019-01-20T00:58:44.050Z,93.80
2019-01-20T01:01:30.681Z,93.60
2019-01-20T01:04:14.021Z,93.70
2019-01-20T01:06:56.563Z,93.70
2019-01-20T01:09:40.029Z,93.60
2019-01-20T01:12:24.184Z,93.70
2019-01-20T01:15:06.929Z,93.70
2019-01-20T01:17:49.668Z,93.70
2019-01-20T01:20:33.084Z,93.70
2019-01-20T01:23:15.939Z,93.50
2019-01-20T01:25:59.184Z,93.50
2019-01-20T01:28:41.979Z,93.50
2019-01-20T01:31:25.577Z,93.50
2019-01-20T01:34:08.117Z,93.40
2019-01-20T01:36:54.940Z,93.50
2019-01-20T01:39:40.466Z,93.40
2019-01-20T01:42:23.550Z,93.30
2019-01-20T01:45:06.187Z,93.30
2019-01-20T01:47:50.790Z,93.10
2019-01-20T01:50:33.683Z,92.80
2019-01-20T01:53:16.605Z,92.90
2019-01-20T01:55:59.671Z,92.90
2019-01-20T01:58:42.913Z,92.60
2019-01-20T02:01:25.965Z,92.50
2019-01-20T02:04:08.952Z,92.40
2019-01-20T02:06:51.872Z,92.40
2019-01-20T02:09:34.700Z,92.40
2019-01-20T02:12:17.436Z,92.20
2019-01-20T02:15:02.939Z,92.10
2019-01-20T02:17:45.715Z,92.10
2019-01-20T02:20:29.557Z,92.00
2019-01-20T02:23:15.029Z,92.00
2019-01-20T02:25:58.258Z,92.10
2019-01-20T02:28:41.603Z,92.10
2019-01-20T02:31:25.327Z,92.10
2019-01-20T02:34:08.865Z,92.00
2019-01-20T02:36:52.340Z,92.00
2019-01-20T02:39:35.234Z,92.00
2019-01-20T02:42:18.727Z,91.80
2019-01-20T02:45:01.215Z,91.80
2019-01-20T02:47:44.012Z,91.60
2019-01-20T02:50:26.774Z,91.70
2019-01-20T02:53:10.812Z,92.00
2019-01-20T02:55:54.335Z,91.60
2019-01-20T02:58:37.617Z,91.60
2019-01-20T03:01:20.586Z,91.60
2019-01-20T03:04:05.005Z,91.60
2019-01-20T03:06:47.710Z,91.60
2019-01-20T03:09:30.329Z,91.50
2019-01-20T03:12:14.420Z,91.40
2019-01-20T03:14:57.233Z,91.30
2019-01-20T03:17:40.872Z,91.20
2019-01-20T03:20:24.496Z,91.10
2019-01-20T03:23:08.436Z,91.10
2019-01-20T03:25:53.357Z,91.00
2019-01-20T03:28:38.867Z,91.00
2019-01-20T03:31:23.477Z,90.90
2019-01-20T03:34:07.245Z,90.70
2019-01-20T03:36:50.413Z,90.50
2019-01-20T03:39:33.758Z,90.20
2019-01-20T03:42:18.883Z,90.20
2019-01-20T03:45:01.819Z,90.10
2019-01-20T03:47:46.745Z,89.90
2019-01-20T03:50:34.413Z,89.80
2019-01-20T03:53:17.347Z,89.80
2019-01-20T03:56:00.118Z,89.60
2019-01-20T03:58:45.425Z,89.30
2019-01-20T04:01:28.585Z,89.20
2019-01-20T04:04:11.752Z,88.90
2019-01-20T04:06:57.293Z,89.00
2019-01-20T04:09:41.825Z,89.30
2019-01-20T04:12:24.781Z,89.10
2019-01-20T04:15:07.718Z,88.90
2019-01-20T04:17:50.578Z,89.10
2019-01-20T04:20:37.529Z,89.20
2019-01-20T04:23:22.404Z,89.20
2019-01-20T04:26:07.333Z,89.10
2019-01-20T04:28:52.740Z,89.00
2019-01-20T04:31:35.393Z,88.90
2019-01-20T04:34:19.254Z,88.40
2019-01-20T04:37:02.389Z,88.50
2019-01-20T04:39:45.516Z,88.40
2019-01-20T04:42:30.427Z,88.10
2019-01-20T04:45:12.941Z,88.00
2019-01-20T04:47:56.608Z,88.10
2019-01-20T04:50:39.467Z,87.80
2019-01-20T04:53:22.570Z,87.80
2019-01-20T04:56:05.846Z,87.60
2019-01-20T04:58:48.857Z,87.80
2019-01-20T05:01:31.572Z,87.80
2019-01-20T05:04:14.149Z,87.70
2019-01-20T05:06:59.664Z,88.00
2019-01-20T05:09:43.097Z,87.80
2019-01-20T05:12:25.986Z,88.40
2019-01-20T05:15:08.984Z,87.90
2019-01-20T05:17:52.270Z,88.00
2019-01-20T05:20:35.050Z,87.90
2019-01-20T05:23:18.248Z,88.00
2019-01-20T05:26:01.546Z,88.10
2019-01-20T05:28:45.454Z,88.30
2019-01-20T05:31:28.578Z,88.30
2019-01-20T05:34:12.277Z,88.30
2019-01-20T05:36:55.006Z,88.20
2019-01-20T05:39:38.915Z,88.40
2019-01-20T05:42:23.968Z,88.40
2019-01-20T05:45:07.863Z,88.70
2019-01-20T05:47:51.362Z,88.50
2019-01-20T05:50:22.981Z,88.50
2019-01-20T05:56:16.179Z,88.40
2019-01-20T05:59:01.569Z,88.40
2019-01-20T06:01:45.648Z,88.50
2019-01-20T06:04:29.409Z,88.70
2019-01-20T06:07:12.586Z,88.70
2019-01-20T06:09:57.961Z,88.80
2019-01-20T06:12:40.977Z,88.70
2019-01-20T06:15:23.711Z,88.70
2019-01-20T06:18:07.482Z,88.60
2019-01-20T06:20:51.021Z,88.60
2019-01-20T06:23:35.089Z,88.70
2019-01-20T06:26:19.686Z,88.80
2019-01-20T06:29:02.657Z,89.00
2019-01-20T06:31:45.482Z,88.60
2019-01-20T06:34:28.241Z,88.70
2019-01-20T06:37:11.144Z,88.80
2019-01-20T06:39:56.423Z,88.90
2019-01-20T06:42:39.080Z,89.00
2019-01-20T06:45:22.943Z,89.00
2019-01-20T06:48:05.933Z,89.00
2019-01-20T06:50:48.593Z,89.00
2019-01-20T06:53:31.558Z,89.80
2019-01-20T06:56:15.026Z,88.80
2019-01-20T06:58:58.549Z,88.50
2019-01-20T07:01:41.961Z,88.40
2019-01-20T07:04:25.032Z,88.40
2019-01-20T07:07:07.794Z,88.30
2019-01-20T07:09:52.776Z,88.40
2019-01-20T07:12:36.173Z,88.60
2019-01-20T07:15:19.079Z,88.60
2019-01-20T07:18:03.108Z,88.50
2019-01-20T07:20:45.877Z,88.50
2019-01-20T07:23:30.043Z,88.60
2019-01-20T07:26:13.048Z,88.60
2019-01-20T07:28:56.932Z,88.70
2019-01-20T07:31:42.176Z,88.80
2019-01-20T07:34:27.457Z,89.00
2019-01-20T07:37:10.489Z,88.80
2019-01-20T07:39:54.544Z,88.80
2019-01-20T07:42:39.735Z,88.80
2019-01-20T07:45:23.256Z,88.70
2019-01-20T07:48:06.242Z,88.50
2019-01-20T07:50:49.158Z,88.40
2019-01-20T07:53:32.417Z,88.50
2019-01-20T07:56:15.052Z,88.40
2019-01-20T07:58:58.328Z,88.40
2019-01-20T08:01:41.350Z,88.40
2019-01-20T08:04:24.370Z,88.20
2019-01-20T08:07:07.365Z,88.70
2019-01-20T08:09:51.852Z,88.30
2019-01-20T08:12:36.846Z,87.80
2019-01-20T08:15:19.587Z,87.80
2019-01-20T08:18:02.190Z,87.80
2019-01-20T08:20:47.236Z,87.90
2019-01-20T08:23:30.072Z,87.80
2019-01-20T08:26:13.509Z,87.60
2019-01-20T08:28:57.367Z,87.60
2019-01-20T08:31:40.141Z,87.00
2019-01-20T08:34:22.734Z,86.70
2019-01-20T08:37:08.784Z,86.40
2019-01-20T08:39:55.380Z,86.40
2019-01-20T08:42:40.118Z,86.20
2019-01-20T08:45:23.111Z,86.10
2019-01-20T08:48:06.082Z,86.10
2019-01-20T08:50:50.516Z,90.40
2019-01-20T08:53:33.937Z,85.80
2019-01-20T08:56:16.635Z,85.70
2019-01-20T08:58:59.963Z,86.00
2019-01-20T09:01:43.413Z,85.80
2019-01-20T09:04:28.044Z,85.70
2019-01-20T09:07:11.768Z,85.60
2019-01-20T09:09:55.110Z,85.50
2019-01-20T09:12:39.408Z,85.50
2019-01-20T09:15:22.178Z,85.70
2019-01-20T09:18:04.785Z,85.80
2019-01-20T09:20:49.837Z,85.90
2019-01-20T09:23:35.497Z,85.90
2019-01-20T09:26:19.893Z,85.90
2019-01-20T09:29:04.458Z,86.10
2019-01-20T09:31:47.833Z,86.20
2019-01-20T09:34:30.441Z,86.00
2019-01-20T09:37:15.323Z,85.90
2019-01-20T09:40:00.819Z,86.00
2019-01-20T09:42:45.246Z,86.00
2019-01-20T09:45:29.839Z,86.00
2019-01-20T09:48:14.588Z,85.80
2019-01-20T09:50:57.243Z,85.70
2019-01-20T09:53:40.429Z,85.70
2019-01-20T09:56:23.239Z,85.50
2019-01-20T09:59:05.926Z,85.20
2019-01-20T10:01:50.438Z,84.90
2019-01-20T10:04:33.624Z,85.00
2019-01-20T10:07:16.728Z,84.90
2019-01-20T10:10:00.011Z,84.60
2019-01-20T10:12:42.964Z,84.40
2019-01-20T10:15:26.233Z,84.10
2019-01-20T10:18:09.150Z,84.30
2019-01-20T10:20:51.858Z,84.20
2019-01-20T10:23:35.162Z,83.90
2019-01-20T10:26:18.523Z,83.40
2019-01-20T10:29:01.973Z,83.00
2019-01-20T10:34:30.890Z,82.20
2019-01-20T10:37:15.832Z,82.00
2019-01-20T10:39:59.018Z,81.70
2019-01-20T10:42:43.039Z,81.70
2019-01-20T10:45:25.736Z,81.60
2019-01-20T10:48:10.625Z,81.60
2019-01-20T10:50:53.796Z,81.30
2019-01-20T10:53:38.969Z,81.40
2019-01-20T10:56:22.301Z,81.10
2019-01-20T10:59:07.341Z,80.90
2019-01-20T11:01:49.864Z,81.10
2019-01-20T11:04:32.843Z,81.30
2019-01-20T11:07:17.172Z,81.20
2019-01-20T11:10:01.769Z,80.90
2019-01-20T11:12:44.531Z,80.60
2019-01-20T11:15:27.635Z,80.60
2019-01-20T11:18:10.831Z,80.70
2019-01-20T11:20:54.281Z,80.60
2019-01-20T11:23:37.168Z,80.50
2019-01-20T11:26:21.972Z,80.60
2019-01-20T11:29:05.138Z,80.60
2019-01-20T11:31:48.111Z,80.20
2019-01-20T11:34:33.673Z,80.10
2019-01-20T11:37:18.246Z,80.40
2019-01-20T11:40:01.522Z,80.20
2019-01-20T11:42:46.629Z,80.50
2019-01-20T11:45:31.350Z,80.60
2019-01-20T11:48:16.283Z,80.70
2019-01-20T11:50:59.407Z,80.70
2019-01-20T11:53:42.178Z,81.00
2019-01-20T11:56:25.662Z,80.90
2019-01-20T11:59:10.726Z,81.30
2019-01-20T12:01:55.698Z,81.40
2019-01-20T12:04:40.896Z,80.90
2019-01-20T12:07:12.498Z,80.30
2019-01-20T12:09:55.561Z,80.30
2019-01-20T12:12:38.870Z,80.00
2019-01-20T12:15:23.769Z,80.00
2019-01-20T12:18:06.494Z,79.80
2019-01-20T12:20:49.313Z,79.70
2019-01-20T12:23:33.581Z,79.90
2019-01-20T12:26:18.951Z,79.90
2019-01-20T12:29:01.703Z,80.10
2019-01-20T12:31:46.956Z,80.00
2019-01-20T12:34:31.992Z,79.90
2019-01-20T12:37:17.060Z,80.00
2019-01-20T12:40:01.709Z,79.80
2019-01-20T12:42:46.506Z,80.60
2019-01-20T12:45:29.673Z,79.70
2019-01-20T12:48:12.286Z,79.70
2019-01-20T12:50:55.909Z,79.50
2019-01-20T12:53:39.225Z,79.40
2019-01-20T12:56:23.341Z,79.10
2019-01-20T12:59:08.097Z,79.00
2019-01-20T13:01:51.707Z,78.90
2019-01-20T13:04:35.970Z,79.10
2019-01-20T13:07:18.769Z,79.00
2019-01-20T13:10:04.267Z,79.00
2019-01-20T13:12:49.353Z,79.00
2019-01-20T13:15:32.021Z,79.00
2019-01-20T13:18:15.445Z,79.10
2019-01-20T13:20:59.006Z,79.20
2019-01-20T13:23:43.196Z,79.30
2019-01-20T13:26:25.722Z,79.50
2019-01-20T13:29:09.100Z,79.40
2019-01-20T13:31:52.053Z,79.40
2019-01-20T13:34:35.552Z,79.40
2019-01-20T13:37:19.821Z,79.20
2019-01-20T13:40:02.493Z,79.10
2019-01-20T13:42:46.937Z,79.00
2019-01-20T13:45:29.499Z,79.00
2019-01-20T13:48:12.635Z,79.20
2019-01-20T13:50:55.458Z,79.20
2019-01-20T13:53:40.052Z,79.30
2019-01-20T13:56:22.978Z,79.50
2019-01-20T13:59:06.256Z,79.60
2019-01-20T14:01:48.887Z,79.60
2019-01-20T14:04:31.912Z,79.40
2019-01-20T14:07:15.279Z,79.50
2019-01-20T14:09:57.809Z,79.50
2019-01-20T14:12:40.646Z,79.30
2019-01-20T14:15:26.186Z,79.50
2019-01-20T14:18:09.040Z,79.40
2019-01-20T14:20:51.721Z,79.40
2019-01-20T14:23:34.397Z,79.60
2019-01-20T14:26:16.971Z,79.70
2019-01-20T14:29:02.284Z,79.70
2019-01-20T14:31:46.845Z,79.60
2019-01-20T14:34:29.455Z,79.50
2019-01-20T14:37:12.832Z,79.70
2019-01-20T14:39:55.956Z,79.80
2019-01-20T14:42:40.968Z,79.90
2019-01-20T14:45:23.951Z,79.80
2019-01-20T14:48:06.826Z,79.70
2019-01-20T14:50:49.465Z,79.70
2019-01-20T14:53:32.400Z,79.80
2019-01-20T14:56:13.941Z,79.60
2019-01-20T14:58:56.729Z,79.50
2019-01-20T15:01:39.679Z,79.40
2019-01-20T15:04:22.186Z,79.50
2019-01-20T15:07:06.234Z,79.50
2019-01-20T15:09:49.044Z,79.60
2019-01-20T15:12:31.718Z,79.60
2019-01-20T15:15:16.522Z,79.70
2019-01-20T15:18:00.140Z,79.70
2019-01-20T15:20:43.502Z,79.70
2019-01-20T15:23:26.499Z,79.60
2019-01-20T15:26:09.692Z,79.60
2019-01-20T15:28:53.959Z,79.50
2019-01-20T15:31:39.986Z,79.50
2019-01-20T15:34:23.987Z,79.60
2019-01-20T15:37:09.164Z,79.50
2019-01-20T15:39:52.760Z,79.40
2019-01-20T15:42:35.590Z,79.40
2019-01-20T15:45:19.037Z,79.10
2019-01-20T15:48:02.596Z,78.80
2019-01-20T15:50:46.227Z,78.50
2019-01-20T15:53:31.539Z,78.50
2019-01-20T15:56:14.665Z,78.70
2019-01-20T15:58:59.518Z,78.60
2019-01-20T16:01:44.777Z,78.70
2019-01-20T16:04:29.916Z,78.50
2019-01-20T16:07:13.362Z,78.20
2019-01-20T16:09:56.391Z,77.90
2019-01-20T16:12:39.608Z,77.60
2019-01-20T16:15:24.678Z,77.30
2019-01-20T16:18:07.293Z,77.20
2019-01-20T16:20:51.654Z,77.30
2019-01-20T16:23:36.930Z,76.90
2019-01-20T16:26:23.591Z,76.50
2019-01-20T16:29:06.766Z,76.10
2019-01-20T16:31:49.966Z,76.00
2019-01-20T16:34:32.804Z,75.70
2019-01-20T16:37:17.374Z,75.60
2019-01-20T16:40:02.467Z,75.40
2019-01-20T16:42:45.834Z,75.20
2019-01-20T16:45:32.993Z,75.20
2019-01-20T16:48:14.085Z,75.20
2019-01-20T16:50:57.941Z,75.10
2019-01-20T16:53:43.515Z,74.90
2019-01-20T16:56:26.641Z,75.00
2019-01-20T16:59:12.946Z,75.00
2019-01-20T17:01:56.287Z,75.00
2019-01-20T17:04:40.727Z,74.70
2019-01-20T17:07:23.760Z,74.30
2019-01-20T17:10:06.916Z,73.90
2019-01-20T17:12:50.101Z,73.80
2019-01-20T17:15:39.405Z,73.60
2019-01-20T17:18:17.561Z,73.50
2019-01-20T17:21:02.837Z,73.40
2019-01-20T17:23:47.476Z,73.60
2019-01-20T17:26:30.372Z,73.60
2019-01-20T17:29:13.366Z,73.70
2019-01-20T17:31:56.781Z,73.90
2019-01-20T17:34:39.875Z,74.00
2019-01-20T17:37:22.753Z,74.20
2019-01-20T17:40:06.043Z,74.60
2019-01-20T17:42:49.125Z,75.20
2019-01-20T17:45:32.413Z,75.70
2019-01-20T17:48:17.552Z,76.00
2019-01-20T17:51:02.307Z,76.00
2019-01-20T17:56:57.695Z,76.10
2019-01-20T17:59:44.431Z,75.90
2019-01-20T18:02:27.062Z,75.80
2019-01-20T18:07:55.027Z,75.90
2019-01-20T18:10:41.821Z,76.60
2019-01-20T18:13:24.834Z,75.70
2019-01-20T18:16:08.244Z,75.50
2019-01-20T18:18:53.782Z,75.20
2019-01-20T18:21:37.209Z,75.20
2019-01-20T18:24:20.438Z,75.50
2019-01-20T18:27:04.060Z,75.10
2019-01-20T18:29:46.833Z,74.40
2019-01-20T18:32:30.475Z,73.90
2019-01-20T18:35:13.827Z,73.80
2019-01-20T18:37:57.247Z,73.40
2019-01-20T18:40:43.326Z,73.20
2019-01-20T18:43:27.932Z,73.30
2019-01-20T18:46:10.622Z,73.10
2019-01-20T18:48:54.274Z,72.50
2019-01-20T18:51:39.452Z,71.80
2019-01-20T18:54:24.893Z,71.30
2019-01-20T18:57:07.872Z,71.90
2019-01-20T18:59:50.961Z,71.40
2019-01-20T19:02:35.970Z,71.30
2019-01-20T19:05:19.902Z,71.80
2019-01-20T19:08:02.729Z,72.60
2019-01-20T19:10:45.746Z,72.80
2019-01-20T19:13:28.470Z,72.70
2019-01-20T19:16:11.540Z,73.00
2019-01-20T19:18:54.448Z,73.10
2019-01-20T19:21:38.682Z,73.20
2019-01-20T19:24:41.696Z,73.20
2019-01-20T19:27:25.642Z,73.00
2019-01-20T19:30:10.917Z,73.30
2019-01-20T19:32:55.001Z,73.30
2019-01-20T19:35:38.368Z,73.50
2019-01-20T19:38:21.810Z,73.80
2019-01-20T19:43:49.816Z,74.20
2019-01-20T19:46:33.155Z,74.00
2019-01-20T19:49:16.729Z,74.10
2019-01-20T19:51:59.396Z,74.20
2019-01-20T19:54:43.877Z,74.10
2019-01-20T19:57:29.647Z,73.80
2019-01-20T20:00:12.999Z,73.80
2019-01-20T20:02:56.757Z,73.70
2019-01-20T20:05:40.264Z,73.40
2019-01-20T20:08:22.956Z,73.20
2019-01-20T20:11:05.572Z,72.90
2019-01-20T20:13:50.895Z,72.70
2019-01-20T20:16:36.021Z,72.60
2019-01-20T20:19:20.639Z,72.40
2019-01-20T20:22:03.992Z,72.30
2019-01-20T20:24:49.937Z,72.40
2019-01-20T20:27:34.785Z,72.30
2019-01-20T20:30:21.514Z,72.20
2019-01-20T20:33:04.483Z,72.10
2019-01-20T20:35:47.537Z,71.80
2019-01-20T20:38:19.234Z,71.70
2019-01-20T20:41:10.139Z,71.60
2019-01-20T20:43:53.019Z,71.80
2019-01-20T20:46:36.208Z,71.90
2019-01-20T20:49:19.203Z,72.00
2019-01-20T20:52:02.057Z,72.10
2019-01-20T20:54:45.120Z,71.90
2019-01-20T20:57:29.394Z,71.70
2019-01-20T21:00:12.473Z,71.40
2019-01-20T21:02:56.219Z,70.80
2019-01-20T21:05:42.001Z,70.80
2019-01-20T21:08:26.916Z,70.90
2019-01-20T21:11:11.884Z,70.70
2019-01-20T21:13:55.795Z,70.90
2019-01-20T21:16:39.231Z,71.10
2019-01-20T21:19:24.473Z,71.30
2019-01-20T21:22:09.392Z,71.30
2019-01-20T21:24:52.567Z,71.40
2019-01-20T21:27:36.875Z,71.60
2019-01-20T21:30:22.092Z,72.00
2019-01-20T21:33:05.501Z,72.60
2019-01-20T21:35:49.089Z,73.20
2019-01-20T21:38:33.571Z,73.70
2019-01-20T21:41:20.751Z,74.50
2019-01-20T21:43:52.440Z,75.20
2019-01-20T21:46:45.363Z,75.70
2019-01-20T21:49:38.240Z,76.20
2019-01-20T21:52:23.613Z,76.60
2019-01-20T21:55:06.656Z,76.80
2019-01-20T21:57:50.248Z,77.00
2019-01-20T22:00:33.519Z,77.00
2019-01-20T22:03:16.516Z,77.00
2019-01-20T22:05:59.996Z,77.00
2019-01-20T22:08:43.394Z,77.10
2019-01-20T22:11:28.960Z,77.20
2019-01-20T22:14:12.435Z,77.40
2019-01-20T22:16:55.301Z,77.70
2019-01-20T22:19:38.727Z,78.00
2019-01-20T22:22:23.812Z,78.10
2019-01-20T22:25:08.985Z,78.30
2019-01-20T22:27:53.738Z,78.60
2019-01-20T22:30:36.354Z,78.90
2019-01-20T22:33:19.050Z,79.00
2019-01-20T22:36:02.426Z,79.30
2019-01-20T22:38:46.101Z,79.50
2019-01-20T22:41:30.201Z,79.50
2019-01-20T22:44:13.215Z,79.60
2019-01-20T22:47:00.182Z,79.90
2019-01-20T22:49:43.755Z,80.00
2019-01-20T22:52:26.564Z,80.10
2019-01-20T22:55:11.572Z,80.10
2019-01-20T22:57:55.122Z,80.10
2019-01-20T23:00:57.419Z,80.20
2019-01-20T23:04:01.956Z,80.30
2019-01-20T23:06:44.741Z,80.80
2019-01-20T23:09:28.775Z,80.80
2019-01-20T23:12:12.285Z,80.80
2019-01-20T23:14:55.113Z,81.10
2019-01-20T23:17:39.770Z,81.20
2019-01-20T23:20:22.783Z,81.20
2019-01-20T23:23:06.470Z,81.40
2019-01-20T23:25:49.077Z,81.40
2019-01-20T23:28:33.873Z,81.40
2019-01-20T23:31:17.397Z,81.40
2019-01-20T23:34:01.993Z,81.40
2019-01-20T23:36:44.765Z,81.50
2019-01-20T23:39:30.023Z,81.50
2019-01-20T23:42:12.649Z,81.60
2019-01-20T23:44:57.502Z,81.50
2019-01-20T23:47:42.530Z,81.50
2019-01-20T23:50:27.657Z,81.80
2019-01-20T23:53:13.198Z,82.40
2019-01-20T23:55:55.795Z,82.80
2019-01-20T23:58:39.787Z,83.00
